sensor_id;sensor_type;location;lat;lon;timestamp;P1;durP1;ratioP1;P2;durP2;ratioP2
3745;SDS011;1888;49.890;10.884;2022-08-19T01:08:41;6.93;;;6.83;;
3745;SDS011;1888;49.890;10.884;2022-08-19T01:11:11;7.50;;;7.40;;
3745;SDS011;1888;49.890;10.884;2022-08-19T01:13:53;7.50;;;7.40;;
3745;SDS011;1888;49.890;10.884;2022-08-19T01:16:21;7.00;;;6.90;;
3745;SDS011;1888;49.890;10.884;2022-08-19T01:18:52;7.37;;;7.27;;
3745;SDS011;1888;49.890;10.884;2022-08-19T01:21:21;7.03;;;6.93;;
3745;SDS011;1888;49.890;10.884;2022-08-19T01:23:51;7.10;;;7.00;;
3745;SDS011;1888;49.890;10.884;2022-08-19T01:26:19;7.17;;;7.07;;
3745;SDS011;1888;49.890;10.884;2022-08-19T01:28:47;7.43;;;7.33;;
3745;SDS011;1888;49.890;10.884;2022-08-19T01:31:16;7.33;;;7.23;;
3745;SDS011;1888;49.890;10.884;2022-08-19T01:33:43;7.23;;;7.13;;
3745;SDS011;1888;49.890;10.884;2022-08-19T01:36:14;7.20;;;7.10;;
3745;SDS011;1888;49.890;10.884;2022-08-19T01:38:42;7.10;;;7.00;;
3745;SDS011;1888;49.890;10.884;2022-08-19T01:41:11;7.10;;;7.00;;
3745;SDS011;1888;49.890;10.884;2022-08-19T01:43:39;6.97;;;6.87;;
3745;SDS011;1888;49.890;10.884;2022-08-19T01:46:07;7.10;;;7.00;;
3745;SDS011;1888;49.890;10.884;2022-08-19T01:51:12;6.97;;;6.87;;
3745;SDS011;1888;49.890;10.884;2022-08-19T01:53:45;6.80;;;6.70;;
3745;SDS011;1888;49.890;10.884;2022-08-19T01:56:15;7.10;;;7.00;;
3745;SDS011;1888;49.890;10.884;2022-08-19T01:58:43;6.97;;;6.87;;
3745;SDS011;1888;49.890;10.884;2022-08-19T02:01:12;6.90;;;6.80;;
3745;SDS011;1888;49.890;10.884;2022-08-19T02:03:40;6.60;;;6.50;;
3745;SDS011;1888;49.890;10.884;2022-08-19T02:06:10;6.30;;;6.20;;
3745;SDS011;1888;49.890;10.884;2022-08-19T02:08:38;5.83;;;5.80;;
3745;SDS011;1888;49.890;10.884;2022-08-19T02:11:05;5.60;;;5.60;;
3745;SDS011;1888;49.890;10.884;2022-08-19T02:13:34;5.60;;;5.60;;
3745;SDS011;1888;49.890;10.884;2022-08-19T02:16:02;5.50;;;5.50;;
3745;SDS011;1888;49.890;10.884;2022-08-19T02:18:30;6.13;;;6.03;;
3745;SDS011;1888;49.890;10.884;2022-08-19T02:20:58;6.70;;;6.60;;
3745;SDS011;1888;49.890;10.884;2022-08-19T02:23:25;6.90;;;6.80;;
3745;SDS011;1888;49.890;10.884;2022-08-19T02:25:53;7.27;;;7.17;;
3745;SDS011;1888;49.890;10.884;2022-08-19T02:28:20;7.33;;;7.23;;
3745;SDS011;1888;49.890;10.884;2022-08-19T02:30:48;7.60;;;7.50;;
3745;SDS011;1888;49.890;10.884;2022-08-19T02:33:16;7.80;;;7.70;;
3745;SDS011;1888;49.890;10.884;2022-08-19T02:35:43;8.30;;;8.20;;
3745;SDS011;1888;49.890;10.884;2022-08-19T02:38:13;8.40;;;8.30;;
3745;SDS011;1888;49.890;10.884;2022-08-19T02:40:52;8.80;;;8.70;;
3745;SDS011;1888;49.890;10.884;2022-08-19T02:43:21;8.47;;;8.37;;
3745;SDS011;1888;49.890;10.884;2022-08-19T02:45:50;8.83;;;8.73;;
3745;SDS011;1888;49.890;10.884;2022-08-19T02:48:17;8.57;;;8.47;;
3745;SDS011;1888;49.890;10.884;2022-08-19T02:50:45;9.20;;;9.10;;
3745;SDS011;1888;49.890;10.884;2022-08-19T02:53:13;9.17;;;9.07;;
3745;SDS011;1888;49.890;10.884;2022-08-19T02:55:44;9.40;;;9.30;;
3745;SDS011;1888;49.890;10.884;2022-08-19T02:58:12;9.10;;;9.00;;
3745;SDS011;1888;49.890;10.884;2022-08-19T03:00:43;9.17;;;9.07;;
3745;SDS011;1888;49.890;10.884;2022-08-19T03:03:11;8.90;;;8.80;;
3745;SDS011;1888;49.890;10.884;2022-08-19T03:05:40;8.60;;;8.50;;
3745;SDS011;1888;49.890;10.884;2022-08-19T03:08:07;8.20;;;8.10;;
3745;SDS011;1888;49.890;10.884;2022-08-19T03:10:40;8.97;;;8.87;;
3745;SDS011;1888;49.890;10.884;2022-08-19T03:13:09;8.70;;;8.60;;
3745;SDS011;1888;49.890;10.884;2022-08-19T03:15:38;9.00;;;8.90;;
3745;SDS011;1888;49.890;10.884;2022-08-19T03:18:05;8.77;;;8.67;;
3745;SDS011;1888;49.890;10.884;2022-08-19T03:20:34;8.90;;;8.80;;
3745;SDS011;1888;49.890;10.884;2022-08-19T03:23:06;8.63;;;8.53;;
3745;SDS011;1888;49.890;10.884;2022-08-19T03:25:36;8.50;;;8.40;;
3745;SDS011;1888;49.890;10.884;2022-08-19T03:28:05;8.60;;;8.50;;
3745;SDS011;1888;49.890;10.884;2022-08-19T03:30:33;8.10;;;8.00;;
3745;SDS011;1888;49.890;10.884;2022-08-19T03:33:02;8.10;;;8.00;;
3745;SDS011;1888;49.890;10.884;2022-08-19T03:35:29;8.33;;;8.23;;
3745;SDS011;1888;49.890;10.884;2022-08-19T03:37:59;8.20;;;8.10;;
3745;SDS011;1888;49.890;10.884;2022-08-19T03:40:26;8.43;;;8.33;;
3745;SDS011;1888;49.890;10.884;2022-08-19T03:42:55;8.67;;;8.57;;
3745;SDS011;1888;49.890;10.884;2022-08-19T03:45:22;8.70;;;8.60;;
3745;SDS011;1888;49.890;10.884;2022-08-19T03:47:49;8.77;;;8.67;;
3745;SDS011;1888;49.890;10.884;2022-08-19T03:50:17;8.97;;;8.87;;
3745;SDS011;1888;49.890;10.884;2022-08-19T03:52:47;8.70;;;8.60;;
3745;SDS011;1888;49.890;10.884;2022-08-19T03:55:17;8.30;;;8.20;;
3745;SDS011;1888;49.890;10.884;2022-08-19T03:57:45;8.30;;;8.20;;
3745;SDS011;1888;49.890;10.884;2022-08-19T04:00:14;8.57;;;8.47;;
3745;SDS011;1888;49.890;10.884;2022-08-19T04:02:41;8.00;;;7.90;;
3745;SDS011;1888;49.890;10.884;2022-08-19T04:05:08;8.10;;;8.00;;
3745;SDS011;1888;49.890;10.884;2022-08-19T04:07:36;7.93;;;7.83;;
3745;SDS011;1888;49.890;10.884;2022-08-19T04:10:03;7.90;;;7.80;;
3745;SDS011;1888;49.890;10.884;2022-08-19T04:12:32;8.00;;;7.90;;
3745;SDS011;1888;49.890;10.884;2022-08-19T04:14:59;8.27;;;8.17;;
3745;SDS011;1888;49.890;10.884;2022-08-19T04:17:28;8.23;;;8.13;;
3745;SDS011;1888;49.890;10.884;2022-08-19T04:19:58;8.50;;;8.40;;
3745;SDS011;1888;49.890;10.884;2022-08-19T04:22:26;8.80;;;8.70;;
3745;SDS011;1888;49.890;10.884;2022-08-19T04:24:53;8.73;;;8.63;;
3745;SDS011;1888;49.890;10.884;2022-08-19T04:27:20;8.80;;;8.70;;
3745;SDS011;1888;49.890;10.884;2022-08-19T04:29:50;9.03;;;8.93;;
3745;SDS011;1888;49.890;10.884;2022-08-19T04:32:17;8.77;;;8.67;;
3745;SDS011;1888;49.890;10.884;2022-08-19T04:34:46;9.13;;;9.03;;
3745;SDS011;1888;49.890;10.884;2022-08-19T04:37:13;8.73;;;8.63;;
3745;SDS011;1888;49.890;10.884;2022-08-19T04:39:40;9.30;;;9.20;;
3745;SDS011;1888;49.890;10.884;2022-08-19T04:42:25;8.73;;;8.63;;
3745;SDS011;1888;49.890;10.884;2022-08-19T04:45:06;8.90;;;8.80;;
3745;SDS011;1888;49.890;10.884;2022-08-19T04:47:34;8.70;;;8.60;;
3745;SDS011;1888;49.890;10.884;2022-08-19T04:50:02;8.83;;;8.73;;
3745;SDS011;1888;49.890;10.884;2022-08-19T04:52:29;8.90;;;8.80;;
3745;SDS011;1888;49.890;10.884;2022-08-19T04:54:57;8.90;;;8.80;;
3745;SDS011;1888;49.890;10.884;2022-08-19T04:57:24;8.93;;;8.83;;
3745;SDS011;1888;49.890;10.884;2022-08-19T04:59:53;8.50;;;8.40;;
3745;SDS011;1888;49.890;10.884;2022-08-19T05:02:24;8.33;;;8.23;;
3745;SDS011;1888;49.890;10.884;2022-08-19T05:04:51;7.83;;;7.73;;
3745;SDS011;1888;49.890;10.884;2022-08-19T05:07:22;7.83;;;7.73;;
3745;SDS011;1888;49.890;10.884;2022-08-19T05:09:49;7.03;;;6.93;;
3745;SDS011;1888;49.890;10.884;2022-08-19T05:12:17;7.00;;;6.90;;
3745;SDS011;1888;49.890;10.884;2022-08-19T05:14:44;6.90;;;6.80;;
3745;SDS011;1888;49.890;10.884;2022-08-19T05:17:12;6.53;;;6.43;;
3745;SDS011;1888;49.890;10.884;2022-08-19T05:19:41;6.33;;;6.23;;
3745;SDS011;1888;49.890;10.884;2022-08-19T05:22:26;6.23;;;6.13;;
3745;SDS011;1888;49.890;10.884;2022-08-19T05:25:01;6.07;;;5.97;;
3745;SDS011;1888;49.890;10.884;2022-08-19T05:27:30;6.40;;;6.30;;
3745;SDS011;1888;49.890;10.884;2022-08-19T05:29:59;6.37;;;6.27;;
3745;SDS011;1888;49.890;10.884;2022-08-19T05:32:26;6.33;;;6.23;;
3745;SDS011;1888;49.890;10.884;2022-08-19T05:34:55;6.40;;;6.30;;
3745;SDS011;1888;49.890;10.884;2022-08-19T05:37:35;6.90;;;6.80;;
3745;SDS011;1888;49.890;10.884;2022-08-19T05:40:05;6.40;;;6.30;;
3745;SDS011;1888;49.890;10.884;2022-08-19T05:42:34;6.40;;;6.30;;
3745;SDS011;1888;49.890;10.884;2022-08-19T05:45:02;6.20;;;6.10;;
3745;SDS011;1888;49.890;10.884;2022-08-19T05:47:29;6.40;;;6.30;;
3745;SDS011;1888;49.890;10.884;2022-08-19T05:49:58;6.23;;;6.13;;
3745;SDS011;1888;49.890;10.884;2022-08-19T05:52:26;6.30;;;6.20;;
3745;SDS011;1888;49.890;10.884;2022-08-19T05:54:54;6.50;;;6.40;;
3745;SDS011;1888;49.890;10.884;2022-08-19T05:57:21;6.10;;;6.00;;
3745;SDS011;1888;49.890;10.884;2022-08-19T05:59:48;6.60;;;6.50;;
3745;SDS011;1888;49.890;10.884;2022-08-19T06:02:16;6.90;;;6.80;;
3745;SDS011;1888;49.890;10.884;2022-08-19T06:04:43;6.77;;;6.67;;
3745;SDS011;1888;49.890;10.884;2022-08-19T06:07:12;7.10;;;7.00;;
3745;SDS011;1888;49.890;10.884;2022-08-19T06:09:40;6.87;;;6.77;;
3745;SDS011;1888;49.890;10.884;2022-08-19T06:12:10;6.90;;;6.80;;
3745;SDS011;1888;49.890;10.884;2022-08-19T06:14:38;6.73;;;6.63;;
3745;SDS011;1888;49.890;10.884;2022-08-19T06:17:20;7.00;;;6.90;;
3745;SDS011;1888;49.890;10.884;2022-08-19T06:19:51;7.00;;;6.90;;
3745;SDS011;1888;49.890;10.884;2022-08-19T06:22:21;7.47;;;7.37;;
3745;SDS011;1888;49.890;10.884;2022-08-19T06:24:49;7.47;;;7.37;;
3745;SDS011;1888;49.890;10.884;2022-08-19T06:27:17;7.20;;;7.10;;
3745;SDS011;1888;49.890;10.884;2022-08-19T06:29:45;7.10;;;7.00;;
3745;SDS011;1888;49.890;10.884;2022-08-19T06:32:14;6.73;;;6.63;;
3745;SDS011;1888;49.890;10.884;2022-08-19T06:34:41;7.30;;;7.20;;
3745;SDS011;1888;49.890;10.884;2022-08-19T06:37:09;7.20;;;7.10;;
3745;SDS011;1888;49.890;10.884;2022-08-19T06:39:38;7.40;;;7.30;;
3745;SDS011;1888;49.890;10.884;2022-08-19T06:42:07;6.80;;;6.70;;
3745;SDS011;1888;49.890;10.884;2022-08-19T06:44:37;6.67;;;6.57;;
3745;SDS011;1888;49.890;10.884;2022-08-19T06:47:05;7.30;;;7.20;;
3745;SDS011;1888;49.890;10.884;2022-08-19T06:49:32;6.83;;;6.73;;
3745;SDS011;1888;49.890;10.884;2022-08-19T06:52:00;6.70;;;6.60;;
3745;SDS011;1888;49.890;10.884;2022-08-19T06:54:30;7.10;;;7.00;;
3745;SDS011;1888;49.890;10.884;2022-08-19T06:56:58;7.00;;;6.90;;
3745;SDS011;1888;49.890;10.884;2022-08-19T06:59:27;6.90;;;6.80;;
3745;SDS011;1888;49.890;10.884;2022-08-19T07:01:58;6.67;;;6.57;;
3745;SDS011;1888;49.890;10.884;2022-08-19T07:04:27;6.70;;;6.60;;
3745;SDS011;1888;49.890;10.884;2022-08-19T07:06:58;6.60;;;6.50;;
3745;SDS011;1888;49.890;10.884;2022-08-19T07:09:26;6.97;;;6.87;;
3745;SDS011;1888;49.890;10.884;2022-08-19T07:11:54;7.60;;;7.50;;
3745;SDS011;1888;49.890;10.884;2022-08-19T07:14:23;7.00;;;6.90;;
3745;SDS011;1888;49.890;10.884;2022-08-19T07:16:51;7.43;;;7.33;;
3745;SDS011;1888;49.890;10.884;2022-08-19T07:19:19;7.50;;;7.40;;
3745;SDS011;1888;49.890;10.884;2022-08-19T07:21:46;7.20;;;7.10;;
3745;SDS011;1888;49.890;10.884;2022-08-19T07:24:15;7.37;;;7.27;;
3745;SDS011;1888;49.890;10.884;2022-08-19T07:26:43;6.90;;;6.80;;
3745;SDS011;1888;49.890;10.884;2022-08-19T07:29:11;7.30;;;7.20;;
3745;SDS011;1888;49.890;10.884;2022-08-19T07:31:39;7.60;;;7.50;;
3745;SDS011;1888;49.890;10.884;2022-08-19T07:34:08;7.97;;;7.87;;
3745;SDS011;1888;49.890;10.884;2022-08-19T07:36:37;8.20;;;8.10;;
3745;SDS011;1888;49.890;10.884;2022-08-19T07:39:06;8.50;;;8.40;;
3745;SDS011;1888;49.890;10.884;2022-08-19T07:41:35;8.87;;;8.77;;
3745;SDS011;1888;49.890;10.884;2022-08-19T07:44:03;8.70;;;8.60;;
3745;SDS011;1888;49.890;10.884;2022-08-19T07:46:38;8.77;;;8.67;;
3745;SDS011;1888;49.890;10.884;2022-08-19T07:49:10;9.30;;;9.20;;
3745;SDS011;1888;49.890;10.884;2022-08-19T07:51:43;9.90;;;9.70;;
3745;SDS011;1888;49.890;10.884;2022-08-19T07:54:11;10.10;;;9.90;;
3745;SDS011;1888;49.890;10.884;2022-08-19T07:56:39;9.90;;;9.70;;
3745;SDS011;1888;49.890;10.884;2022-08-19T07:59:07;10.10;;;9.90;;
3745;SDS011;1888;49.890;10.884;2022-08-19T08:01:35;10.10;;;9.90;;
3745;SDS011;1888;49.890;10.884;2022-08-19T08:04:06;10.37;;;10.17;;
3745;SDS011;1888;49.890;10.884;2022-08-19T08:06:53;10.93;;;10.73;;
3745;SDS011;1888;49.890;10.884;2022-08-19T08:09:40;10.87;;;10.67;;
3745;SDS011;1888;49.890;10.884;2022-08-19T08:12:11;10.83;;;10.63;;
3745;SDS011;1888;49.890;10.884;2022-08-19T08:14:41;11.00;;;10.80;;
3745;SDS011;1888;49.890;10.884;2022-08-19T08:17:09;10.90;;;10.70;;
3745;SDS011;1888;49.890;10.884;2022-08-19T08:19:38;10.63;;;10.43;;
3745;SDS011;1888;49.890;10.884;2022-08-19T08:22:14;11.00;;;10.80;;
3745;SDS011;1888;49.890;10.884;2022-08-19T08:25:10;10.93;;;10.73;;
3745;SDS011;1888;49.890;10.884;2022-08-19T08:27:39;11.00;;;10.80;;
3745;SDS011;1888;49.890;10.884;2022-08-19T08:30:13;10.90;;;10.70;;
3745;SDS011;1888;49.890;10.884;2022-08-19T08:32:40;10.70;;;10.50;;
3745;SDS011;1888;49.890;10.884;2022-08-19T08:35:10;10.80;;;10.60;;
3745;SDS011;1888;49.890;10.884;2022-08-19T08:37:39;11.20;;;11.00;;
3745;SDS011;1888;49.890;10.884;2022-08-19T08:50:38;11.20;;;11.00;;
3745;SDS011;1888;49.890;10.884;2022-08-19T08:53:26;11.20;;;11.00;;
3745;SDS011;1888;49.890;10.884;2022-08-19T08:56:00;11.60;;;11.40;;
3745;SDS011;1888;49.890;10.884;2022-08-19T09:01:36;11.43;;;11.23;;
3745;SDS011;1888;49.890;10.884;2022-08-19T09:06:42;12.00;;;11.70;;
3745;SDS011;1888;49.890;10.884;2022-08-19T09:09:16;11.33;;;11.13;;
3745;SDS011;1888;49.890;10.884;2022-08-19T09:12:14;11.30;;;11.10;;
3745;SDS011;1888;49.890;10.884;2022-08-19T09:14:55;10.97;;;10.77;;
3745;SDS011;1888;49.890;10.884;2022-08-19T09:17:31;11.57;;;11.37;;
3745;SDS011;1888;49.890;10.884;2022-08-19T09:20:04;11.07;;;10.87;;
3745;SDS011;1888;49.890;10.884;2022-08-19T09:22:38;11.13;;;10.93;;
3745;SDS011;1888;49.890;10.884;2022-08-19T09:25:11;10.97;;;10.77;;
3745;SDS011;1888;49.890;10.884;2022-08-19T10:19:19;10.50;;;10.30;;
3745;SDS011;1888;49.890;10.884;2022-08-19T10:21:56;10.80;;;10.60;;
3745;SDS011;1888;49.890;10.884;2022-08-19T10:30:14;10.60;;;10.40;;
3745;SDS011;1888;49.890;10.884;2022-08-19T10:32:58;10.00;;;9.87;;
3745;SDS011;1888;49.890;10.884;2022-08-19T10:35:26;10.10;;;9.90;;
3745;SDS011;1888;49.890;10.884;2022-08-19T10:38:06;10.13;;;9.93;;
3745;SDS011;1888;49.890;10.884;2022-08-19T10:41:28;9.80;;;9.70;;
3745;SDS011;1888;49.890;10.884;2022-08-19T11:05:33;10.93;;;10.73;;
3745;SDS011;1888;49.890;10.884;2022-08-19T11:11:35;10.90;;;10.70;;
3745;SDS011;1888;49.890;10.884;2022-08-19T11:14:50;10.90;;;10.70;;
3745;SDS011;1888;49.890;10.884;2022-08-19T11:20:37;10.50;;;10.30;;
3745;SDS011;1888;49.890;10.884;2022-08-19T12:38:25;10.00;;;9.80;;
3745;SDS011;1888;49.890;10.884;2022-08-19T12:40:53;9.50;;;9.40;;
3745;SDS011;1888;49.890;10.884;2022-08-19T12:46:19;11.10;;;10.90;;
3745;SDS011;1888;49.890;10.884;2022-08-19T15:07:51;0.00;;;0.00;;
3745;SDS011;1888;49.890;10.884;2022-08-19T15:10:19;0.00;;;0.00;;
3745;SDS011;1888;49.890;10.884;2022-08-19T15:12:49;0.00;;;0.00;;
3745;SDS011;1888;49.890;10.884;2022-08-19T15:15:25;0.00;;;0.00;;
3745;SDS011;1888;49.890;10.884;2022-08-19T15:17:55;0.00;;;0.00;;
3745;SDS011;1888;49.890;10.884;2022-08-19T15:20:47;0.00;;;0.00;;
3745;SDS011;1888;49.890;10.884;2022-08-19T15:23:16;0.00;;;0.00;;
3745;SDS011;1888;49.890;10.884;2022-08-19T15:25:43;0.00;;;0.00;;
3745;SDS011;1888;49.890;10.884;2022-08-19T15:28:11;0.00;;;0.00;;
3745;SDS011;1888;49.890;10.884;2022-08-19T15:30:41;0.00;;;0.00;;
3745;SDS011;1888;49.890;10.884;2022-08-19T15:33:09;0.00;;;0.00;;
3745;SDS011;1888;49.890;10.884;2022-08-19T15:35:39;0.00;;;0.00;;
3745;SDS011;1888;49.890;10.884;2022-08-19T15:38:07;0.00;;;0.00;;
3745;SDS011;1888;49.890;10.884;2022-08-19T15:43:44;0.00;;;0.00;;
3745;SDS011;1888;49.890;10.884;2022-08-19T15:46:15;0.00;;;0.00;;
3745;SDS011;1888;49.890;10.884;2022-08-19T15:48:46;0.00;;;0.00;;
3745;SDS011;1888;49.890;10.884;2022-08-19T15:51:13;0.00;;;0.00;;
3745;SDS011;1888;49.890;10.884;2022-08-19T15:53:42;0.00;;;0.00;;
3745;SDS011;1888;49.890;10.884;2022-08-19T15:56:10;0.00;;;0.00;;
3745;SDS011;1888;49.890;10.884;2022-08-19T15:58:37;0.00;;;0.00;;
3745;SDS011;1888;49.890;10.884;2022-08-19T16:01:24;0.00;;;0.00;;
3745;SDS011;1888;49.890;10.884;2022-08-19T16:04:09;0.00;;;0.00;;
3745;SDS011;1888;49.890;10.884;2022-08-19T16:06:56;0.00;;;0.00;;
3745;SDS011;1888;49.890;10.884;2022-08-19T16:09:24;0.00;;;0.00;;
3745;SDS011;1888;49.890;10.884;2022-08-19T16:11:53;0.00;;;0.00;;
3745;SDS011;1888;49.890;10.884;2022-08-19T16:14:21;0.00;;;0.00;;
3745;SDS011;1888;49.890;10.884;2022-08-19T16:16:50;0.00;;;0.00;;
3745;SDS011;1888;49.890;10.884;2022-08-19T16:19:18;0.00;;;0.00;;
3745;SDS011;1888;49.890;10.884;2022-08-19T16:21:46;0.00;;;0.00;;
3745;SDS011;1888;49.890;10.884;2022-08-19T16:24:14;0.00;;;0.00;;
3745;SDS011;1888;49.890;10.884;2022-08-19T16:26:42;0.00;;;0.00;;
3745;SDS011;1888;49.890;10.884;2022-08-19T16:29:09;0.00;;;0.00;;
3745;SDS011;1888;49.890;10.884;2022-08-19T16:31:37;0.00;;;0.00;;
3745;SDS011;1888;49.890;10.884;2022-08-19T16:34:05;0.00;;;0.00;;
3745;SDS011;1888;49.890;10.884;2022-08-19T16:36:33;0.00;;;0.00;;
3745;SDS011;1888;49.890;10.884;2022-08-19T16:39:04;0.00;;;0.00;;
3745;SDS011;1888;49.890;10.884;2022-08-19T16:41:32;0.00;;;0.00;;
3745;SDS011;1888;49.890;10.884;2022-08-19T16:44:01;0.00;;;0.00;;
3745;SDS011;1888;49.890;10.884;2022-08-19T16:46:28;0.00;;;0.00;;
3745;SDS011;1888;49.890;10.884;2022-08-19T16:48:56;0.00;;;0.00;;
3745;SDS011;1888;49.890;10.884;2022-08-19T16:51:25;0.00;;;0.00;;
3745;SDS011;1888;49.890;10.884;2022-08-19T16:53:54;0.00;;;0.00;;
3745;SDS011;1888;49.890;10.884;2022-08-19T16:56:21;0.00;;;0.00;;
3745;SDS011;1888;49.890;10.884;2022-08-19T16:58:49;0.00;;;0.00;;
3745;SDS011;1888;49.890;10.884;2022-08-19T17:01:19;0.00;;;0.00;;
3745;SDS011;1888;49.890;10.884;2022-08-19T17:03:46;0.00;;;0.00;;
3745;SDS011;1888;49.890;10.884;2022-08-19T17:06:15;0.00;;;0.00;;
3745;SDS011;1888;49.890;10.884;2022-08-19T17:08:43;0.00;;;0.00;;
3745;SDS011;1888;49.890;10.884;2022-08-19T17:11:11;0.00;;;0.00;;
3745;SDS011;1888;49.890;10.884;2022-08-19T17:13:39;0.00;;;0.00;;
3745;SDS011;1888;49.890;10.884;2022-08-19T17:16:07;0.00;;;0.00;;
3745;SDS011;1888;49.890;10.884;2022-08-19T17:18:34;0.00;;;0.00;;
3745;SDS011;1888;49.890;10.884;2022-08-19T17:21:01;0.00;;;0.00;;
3745;SDS011;1888;49.890;10.884;2022-08-19T17:23:31;0.00;;;0.00;;
3745;SDS011;1888;49.890;10.884;2022-08-19T17:25:59;0.00;;;0.00;;
3745;SDS011;1888;49.890;10.884;2022-08-19T17:28:28;0.00;;;0.00;;
3745;SDS011;1888;49.890;10.884;2022-08-19T17:30:56;0.00;;;0.00;;
3745;SDS011;1888;49.890;10.884;2022-08-19T17:33:23;0.00;;;0.00;;
3745;SDS011;1888;49.890;10.884;2022-08-19T17:35:51;0.00;;;0.00;;
3745;SDS011;1888;49.890;10.884;2022-08-19T17:38:20;0.00;;;0.00;;
3745;SDS011;1888;49.890;10.884;2022-08-19T17:40:48;0.00;;;0.00;;
3745;SDS011;1888;49.890;10.884;2022-08-19T17:43:30;0.00;;;0.00;;
3745;SDS011;1888;49.890;10.884;2022-08-19T17:45:59;0.00;;;0.00;;
3745;SDS011;1888;49.890;10.884;2022-08-19T17:48:28;0.00;;;0.00;;
3745;SDS011;1888;49.890;10.884;2022-08-19T17:50:55;0.00;;;0.00;;
3745;SDS011;1888;49.890;10.884;2022-08-19T17:53:23;0.00;;;0.00;;
3745;SDS011;1888;49.890;10.884;2022-08-19T17:55:51;0.00;;;0.00;;
3745;SDS011;1888;49.890;10.884;2022-08-19T17:58:19;0.00;;;0.00;;
3745;SDS011;1888;49.890;10.884;2022-08-19T18:00:51;0.00;;;0.00;;
3745;SDS011;1888;49.890;10.884;2022-08-19T18:03:19;0.00;;;0.00;;
3745;SDS011;1888;49.890;10.884;2022-08-19T18:05:46;0.00;;;0.00;;
3745;SDS011;1888;49.890;10.884;2022-08-19T18:08:37;0.00;;;0.00;;
3745;SDS011;1888;49.890;10.884;2022-08-19T18:11:13;0.00;;;0.00;;
3745;SDS011;1888;49.890;10.884;2022-08-19T18:13:42;0.00;;;0.00;;
3745;SDS011;1888;49.890;10.884;2022-08-19T18:19:05;0.00;;;0.00;;
3745;SDS011;1888;49.890;10.884;2022-08-19T18:21:33;0.00;;;0.00;;
3745;SDS011;1888;49.890;10.884;2022-08-19T18:24:00;0.00;;;0.00;;
3745;SDS011;1888;49.890;10.884;2022-08-19T18:26:32;0.00;;;0.00;;
3745;SDS011;1888;49.890;10.884;2022-08-19T18:29:00;0.00;;;0.00;;
3745;SDS011;1888;49.890;10.884;2022-08-19T18:31:37;0.00;;;0.00;;
3745;SDS011;1888;49.890;10.884;2022-08-19T18:34:07;0.00;;;0.00;;
3745;SDS011;1888;49.890;10.884;2022-08-19T18:36:38;0.00;;;0.00;;
3745;SDS011;1888;49.890;10.884;2022-08-19T18:39:05;0.00;;;0.00;;
3745;SDS011;1888;49.890;10.884;2022-08-19T18:41:50;0.00;;;0.00;;
3745;SDS011;1888;49.890;10.884;2022-08-19T18:44:35;0.00;;;0.00;;
3745;SDS011;1888;49.890;10.884;2022-08-19T18:47:21;0.00;;;0.00;;
3745;SDS011;1888;49.890;10.884;2022-08-19T18:50:08;0.00;;;0.00;;
3745;SDS011;1888;49.890;10.884;2022-08-19T18:52:37;0.00;;;0.00;;
3745;SDS011;1888;49.890;10.884;2022-08-19T18:55:05;0.00;;;0.00;;
3745;SDS011;1888;49.890;10.884;2022-08-19T18:57:35;0.00;;;0.00;;
3745;SDS011;1888;49.890;10.884;2022-08-19T19:00:03;0.00;;;0.00;;
3745;SDS011;1888;49.890;10.884;2022-08-19T19:02:35;0.00;;;0.00;;
3745;SDS011;1888;49.890;10.884;2022-08-19T19:05:04;0.00;;;0.00;;
3745;SDS011;1888;49.890;10.884;2022-08-19T19:07:34;0.00;;;0.00;;
3745;SDS011;1888;49.890;10.884;2022-08-19T19:10:02;0.00;;;0.00;;
3745;SDS011;1888;49.890;10.884;2022-08-19T19:12:32;0.00;;;0.00;;
3745;SDS011;1888;49.890;10.884;2022-08-19T19:15:01;0.00;;;0.00;;
3745;SDS011;1888;49.890;10.884;2022-08-19T19:17:30;0.00;;;0.00;;
3745;SDS011;1888;49.890;10.884;2022-08-19T19:19:57;0.00;;;0.00;;
3745;SDS011;1888;49.890;10.884;2022-08-19T19:22:25;0.00;;;0.00;;
3745;SDS011;1888;49.890;10.884;2022-08-19T19:24:53;0.00;;;0.00;;
3745;SDS011;1888;49.890;10.884;2022-08-19T19:27:23;0.00;;;0.00;;
3745;SDS011;1888;49.890;10.884;2022-08-19T19:29:52;0.00;;;0.00;;
3745;SDS011;1888;49.890;10.884;2022-08-19T19:32:22;0.00;;;0.00;;
3745;SDS011;1888;49.890;10.884;2022-08-19T19:34:50;0.00;;;0.00;;
3745;SDS011;1888;49.890;10.884;2022-08-19T19:37:21;0.00;;;0.00;;
3745;SDS011;1888;49.890;10.884;2022-08-19T19:39:49;0.00;;;0.00;;
3745;SDS011;1888;49.890;10.884;2022-08-19T19:42:19;0.00;;;0.00;;
3745;SDS011;1888;49.890;10.884;2022-08-19T19:44:51;0.00;;;0.00;;
3745;SDS011;1888;49.890;10.884;2022-08-19T19:47:22;0.00;;;0.00;;
3745;SDS011;1888;49.890;10.884;2022-08-19T19:49:52;0.00;;;0.00;;
3745;SDS011;1888;49.890;10.884;2022-08-19T19:52:22;0.00;;;0.00;;
3745;SDS011;1888;49.890;10.884;2022-08-19T19:54:50;0.00;;;0.00;;
3745;SDS011;1888;49.890;10.884;2022-08-19T19:57:22;0.00;;;0.00;;
3745;SDS011;1888;49.890;10.884;2022-08-19T19:59:51;0.00;;;0.00;;
3745;SDS011;1888;49.890;10.884;2022-08-19T20:02:21;0.00;;;0.00;;
3745;SDS011;1888;49.890;10.884;2022-08-19T20:04:51;0.00;;;0.00;;
3745;SDS011;1888;49.890;10.884;2022-08-19T20:07:22;0.00;;;0.00;;
3745;SDS011;1888;49.890;10.884;2022-08-19T20:10:11;0.00;;;0.00;;
3745;SDS011;1888;49.890;10.884;2022-08-19T20:12:39;0.00;;;0.00;;
3745;SDS011;1888;49.890;10.884;2022-08-19T20:15:07;0.00;;;0.00;;
3745;SDS011;1888;49.890;10.884;2022-08-19T20:17:35;0.00;;;0.00;;
3745;SDS011;1888;49.890;10.884;2022-08-19T20:20:07;0.00;;;0.00;;
3745;SDS011;1888;49.890;10.884;2022-08-19T20:22:36;0.00;;;0.00;;
3745;SDS011;1888;49.890;10.884;2022-08-19T20:25:05;0.00;;;0.00;;
3745;SDS011;1888;49.890;10.884;2022-08-19T20:27:32;0.00;;;0.00;;
3745;SDS011;1888;49.890;10.884;2022-08-19T20:30:02;0.00;;;0.00;;
3745;SDS011;1888;49.890;10.884;2022-08-19T20:32:29;0.00;;;0.00;;
3745;SDS011;1888;49.890;10.884;2022-08-19T20:34:56;0.00;;;0.00;;
3745;SDS011;1888;49.890;10.884;2022-08-19T20:37:24;0.00;;;0.00;;
3745;SDS011;1888;49.890;10.884;2022-08-19T20:39:52;0.00;;;0.00;;
3745;SDS011;1888;49.890;10.884;2022-08-19T20:42:20;0.00;;;0.00;;
3745;SDS011;1888;49.890;10.884;2022-08-19T20:44:47;0.00;;;0.00;;
3745;SDS011;1888;49.890;10.884;2022-08-19T20:47:19;0.00;;;0.00;;
3745;SDS011;1888;49.890;10.884;2022-08-19T20:49:49;0.00;;;0.00;;
3745;SDS011;1888;49.890;10.884;2022-08-19T20:52:16;0.00;;;0.00;;
3745;SDS011;1888;49.890;10.884;2022-08-19T20:54:44;0.00;;;0.00;;
3745;SDS011;1888;49.890;10.884;2022-08-19T20:57:11;0.00;;;0.00;;
3745;SDS011;1888;49.890;10.884;2022-08-19T20:59:46;0.00;;;0.00;;
3745;SDS011;1888;49.890;10.884;2022-08-19T21:02:24;0.00;;;0.00;;
3745;SDS011;1888;49.890;10.884;2022-08-19T21:04:52;0.00;;;0.00;;
3745;SDS011;1888;49.890;10.884;2022-08-19T21:07:20;0.00;;;0.00;;
3745;SDS011;1888;49.890;10.884;2022-08-19T21:09:49;0.00;;;0.00;;
3745;SDS011;1888;49.890;10.884;2022-08-19T21:12:17;0.00;;;0.00;;
3745;SDS011;1888;49.890;10.884;2022-08-19T21:14:45;0.00;;;0.00;;
3745;SDS011;1888;49.890;10.884;2022-08-19T21:17:15;0.00;;;0.00;;
3745;SDS011;1888;49.890;10.884;2022-08-19T21:19:44;0.00;;;0.00;;
3745;SDS011;1888;49.890;10.884;2022-08-19T21:22:11;0.00;;;0.00;;
3745;SDS011;1888;49.890;10.884;2022-08-19T21:24:39;0.00;;;0.00;;
3745;SDS011;1888;49.890;10.884;2022-08-19T21:27:07;0.00;;;0.00;;
3745;SDS011;1888;49.890;10.884;2022-08-19T21:29:34;0.00;;;0.00;;
3745;SDS011;1888;49.890;10.884;2022-08-19T21:32:05;0.00;;;0.00;;
3745;SDS011;1888;49.890;10.884;2022-08-19T21:34:36;0.00;;;0.00;;
3745;SDS011;1888;49.890;10.884;2022-08-19T21:37:06;0.00;;;0.00;;
3745;SDS011;1888;49.890;10.884;2022-08-19T21:39:44;0.00;;;0.00;;
3745;SDS011;1888;49.890;10.884;2022-08-19T21:42:11;0.00;;;0.00;;
3745;SDS011;1888;49.890;10.884;2022-08-19T21:44:41;0.00;;;0.00;;
3745;SDS011;1888;49.890;10.884;2022-08-19T21:47:09;0.00;;;0.00;;
3745;SDS011;1888;49.890;10.884;2022-08-19T21:49:39;0.00;;;0.00;;
3745;SDS011;1888;49.890;10.884;2022-08-19T21:52:08;0.00;;;0.00;;